createdAt,value
2023-04-24T00:00:41.761Z,12.49
2023-04-24T00:01:23.503Z,12.43
2023-04-24T00:02:05.229Z,12.48
2023-04-24T00:02:49.577Z,12.57
2023-04-24T00:03:31.640Z,12.49
2023-04-24T00:04:17.496Z,12.54
2023-04-24T00:05:03.803Z,12.61
2023-04-24T00:05:46.579Z,12.63
2023-04-24T00:06:34.074Z,12.56
2023-04-24T00:07:17.643Z,12.57
2023-04-24T00:07:59.393Z,12.56
2023-04-24T00:08:41.222Z,12.23
2023-04-24T00:09:22.804Z,12.52
2023-04-24T00:10:04.806Z,12.59
2023-04-24T00:10:46.550Z,12.45
2023-04-24T00:11:28.289Z,12.61
2023-04-24T00:12:10.786Z,12.62
2023-04-24T00:12:52.402Z,12.57
2023-04-24T00:13:33.988Z,12.66
2023-04-24T00:14:16.249Z,12.63
2023-04-24T00:14:57.968Z,12.72
2023-04-24T00:15:40.124Z,12.63
2023-04-24T00:16:21.793Z,12.73
2023-04-24T00:17:03.747Z,12.74
2023-04-24T00:17:45.437Z,12.73
2023-04-24T00:18:27.214Z,12.66
2023-04-24T00:19:08.876Z,12.52
2023-04-24T00:19:52.190Z,12.82
2023-04-24T00:20:34.323Z,12.89
2023-04-24T00:21:18.626Z,12.90
2023-04-24T00:22:00.716Z,12.92
2023-04-24T00:22:42.486Z,12.83
2023-04-24T00:23:24.125Z,12.87
2023-04-24T00:24:05.958Z,12.48
2023-04-24T00:24:47.573Z,12.78
2023-04-24T00:25:29.202Z,12.41
2023-04-24T00:26:11.427Z,12.73
2023-04-24T00:26:53.048Z,12.52
2023-04-24T00:27:36.520Z,12.82
2023-04-24T00:28:18.126Z,12.69
2023-04-24T00:28:59.764Z,12.37
2023-04-24T00:29:42.779Z,12.62
2023-04-24T00:30:24.695Z,12.66
2023-04-24T00:31:06.361Z,12.76
2023-04-24T00:31:48.000Z,12.76
2023-04-24T00:32:29.729Z,12.66
2023-04-24T00:33:11.400Z,12.78
2023-04-24T00:33:53.027Z,12.68
2023-04-24T00:34:34.698Z,12.80
2023-04-24T00:35:16.298Z,12.82
2023-04-24T00:35:58.246Z,12.80
2023-04-24T00:36:39.959Z,12.76
2023-04-24T00:37:21.634Z,12.75
2023-04-24T00:38:03.254Z,12.65
2023-04-24T00:38:44.925Z,12.74
2023-04-24T00:39:26.637Z,12.76
2023-04-24T00:40:08.702Z,12.58
2023-04-24T00:40:51.133Z,12.79
2023-04-24T00:41:32.794Z,12.69
2023-04-24T00:42:14.573Z,12.71
2023-04-24T00:42:56.680Z,12.78
2023-04-24T00:43:38.642Z,12.46
2023-04-24T00:44:20.356Z,12.64
2023-04-24T00:45:04.089Z,12.66
2023-04-24T00:45:45.899Z,12.64
2023-04-24T00:46:27.616Z,12.63
2023-04-24T00:47:09.337Z,12.39
2023-04-24T00:47:53.446Z,12.57
2023-04-24T00:48:35.497Z,12.54
2023-04-24T00:49:17.180Z,12.51
2023-04-24T00:49:58.820Z,12.59
2023-04-24T00:50:40.655Z,12.39
2023-04-24T00:51:22.313Z,12.48
2023-04-24T00:52:08.516Z,12.57
2023-04-24T00:52:50.390Z,12.58
2023-04-24T00:53:32.246Z,12.66
2023-04-24T00:54:14.469Z,12.67
2023-04-24T00:54:56.548Z,12.75
2023-04-24T00:55:39.773Z,12.62
2023-04-24T00:56:21.455Z,12.74
2023-04-24T00:57:07.778Z,12.71
2023-04-24T00:57:49.684Z,12.66
2023-04-24T00:58:32.396Z,12.66
2023-04-24T00:59:16.945Z,12.66
2023-04-24T00:59:58.721Z,12.59
2023-04-24T01:00:40.670Z,12.61
2023-04-24T01:01:23.283Z,12.71
2023-04-24T01:02:06.693Z,12.67
2023-04-24T01:02:49.656Z,12.75
2023-04-24T01:03:35.237Z,12.70
2023-04-24T01:04:18.837Z,12.76
2023-04-24T01:05:01.964Z,12.79
2023-04-24T01:05:43.624Z,12.77
2023-04-24T01:06:28.692Z,12.81
2023-04-24T01:07:12.378Z,12.77
2023-04-24T01:07:54.020Z,12.73
2023-04-24T01:08:36.848Z,12.72
2023-04-24T01:09:19.986Z,12.68
2023-04-24T01:10:01.828Z,12.56
2023-04-24T01:10:45.810Z,12.65
2023-04-24T01:11:27.461Z,12.64
2023-04-24T01:12:09.139Z,12.63
2023-04-24T01:12:52.816Z,12.63
2023-04-24T01:13:35.370Z,12.63
2023-04-24T01:14:18.355Z,12.58
2023-04-24T01:15:00.203Z,12.57
2023-04-24T01:15:41.921Z,12.53
2023-04-24T01:16:24.775Z,12.45
2023-04-24T01:17:06.802Z,12.50
2023-04-24T01:17:48.526Z,12.44
2023-04-24T01:18:30.256Z,12.46
2023-04-24T01:19:13.390Z,12.44
2023-04-24T01:19:57.624Z,12.38
2023-04-24T01:20:41.558Z,12.42
2023-04-24T01:21:28.607Z,12.39
2023-04-24T01:22:12.709Z,12.42
2023-04-24T01:22:55.886Z,12.38
2023-04-24T01:23:38.483Z,12.40
2023-04-24T01:24:20.759Z,12.41
2023-04-24T01:25:03.316Z,12.44
2023-04-24T01:25:46.077Z,12.36
2023-04-24T01:26:27.699Z,12.46
2023-04-24T01:27:10.922Z,12.46
2023-04-24T01:27:53.654Z,12.35
2023-04-24T01:28:35.362Z,12.38
2023-04-24T01:29:17.084Z,12.46
2023-04-24T01:29:59.060Z,12.35
2023-04-24T01:30:41.019Z,12.43
2023-04-24T01:31:23.115Z,12.42
2023-04-24T01:32:05.721Z,12.43
2023-04-24T01:32:47.847Z,12.35
2023-04-24T01:33:29.881Z,12.45
2023-04-24T01:34:11.773Z,12.37
2023-04-24T01:34:53.836Z,12.42
2023-04-24T01:35:37.043Z,12.45
2023-04-24T01:36:19.124Z,12.47
2023-04-24T01:37:01.370Z,12.47
2023-04-24T01:37:42.989Z,12.51
2023-04-24T01:38:24.728Z,12.50
2023-04-24T01:39:06.560Z,12.58
2023-04-24T01:39:48.193Z,12.62
2023-04-24T01:40:29.923Z,12.63
2023-04-24T01:41:13.155Z,12.60
2023-04-24T01:41:56.358Z,12.58
2023-04-24T01:42:38.196Z,12.56
2023-04-24T01:43:20.317Z,12.66
2023-04-24T01:44:02.667Z,12.62
2023-04-24T01:44:44.837Z,12.54
2023-04-24T01:45:26.425Z,12.71
2023-04-24T01:46:08.288Z,12.63
2023-04-24T01:46:51.820Z,12.67
2023-04-24T01:47:33.788Z,12.51
2023-04-24T01:48:15.706Z,12.57
2023-04-24T01:48:57.505Z,12.44
2023-04-24T01:49:40.032Z,12.49
2023-04-24T01:50:21.737Z,12.40
2023-04-24T01:51:03.593Z,12.49
2023-04-24T01:51:45.650Z,12.45
2023-04-24T01:52:28.110Z,12.52
2023-04-24T01:53:09.851Z,12.41
2023-04-24T01:53:51.566Z,12.47
2023-04-24T01:54:33.267Z,12.49
2023-04-24T01:55:14.965Z,12.42
2023-04-24T01:55:56.681Z,12.37
2023-04-24T01:56:44.258Z,12.51
2023-04-24T01:57:26.784Z,12.54
2023-04-24T01:58:08.558Z,12.43
2023-04-24T01:58:51.358Z,12.45
2023-04-24T01:59:35.642Z,12.50
2023-04-24T02:00:17.326Z,12.43
2023-04-24T02:01:01.612Z,12.49
2023-04-24T02:01:43.322Z,12.36
2023-04-24T02:02:25.294Z,12.49
2023-04-24T02:03:07.092Z,12.34
2023-04-24T02:03:49.097Z,12.57
2023-04-24T02:04:31.890Z,12.58
2023-04-24T02:05:13.498Z,12.60
2023-04-24T02:05:55.073Z,12.39
2023-04-24T02:06:36.754Z,12.61
2023-04-24T02:07:18.329Z,12.59
2023-04-24T02:08:00.029Z,12.47
2023-04-24T02:08:41.820Z,12.58
2023-04-24T02:09:23.480Z,12.58
2023-04-24T02:10:06.379Z,12.41
2023-04-24T02:10:48.047Z,12.50
2023-04-24T02:11:29.853Z,12.53
2023-04-24T02:12:12.740Z,12.52
2023-04-24T02:12:54.334Z,11.81
2023-04-24T02:13:39.128Z,12.50
2023-04-24T02:14:21.537Z,12.46
2023-04-24T02:15:03.791Z,12.46
2023-04-24T02:15:45.726Z,12.38
2023-04-24T02:16:31.338Z,12.42
2023-04-24T02:17:14.126Z,12.43
2023-04-24T02:17:55.868Z,12.39
2023-04-24T02:18:37.506Z,12.43
2023-04-24T02:19:19.186Z,12.33
2023-04-24T02:20:00.817Z,12.27
2023-04-24T02:20:42.421Z,12.44
2023-04-24T02:21:24.023Z,12.31
2023-04-24T02:22:05.762Z,12.40
2023-04-24T02:22:47.451Z,12.35
2023-04-24T02:23:29.039Z,12.47
2023-04-24T02:24:11.026Z,12.48
2023-04-24T02:24:52.724Z,12.37
2023-04-24T02:25:34.523Z,12.46
2023-04-24T02:26:16.181Z,12.36
2023-04-24T02:26:59.296Z,12.43
2023-04-24T02:27:41.165Z,12.31
2023-04-24T02:28:22.776Z,12.40
2023-04-24T02:29:06.020Z,12.28
2023-04-24T02:29:47.641Z,12.26
2023-04-24T02:30:29.531Z,12.27
2023-04-24T02:31:11.163Z,12.02
2023-04-24T02:31:52.844Z,12.34
2023-04-24T02:32:34.996Z,12.22
2023-04-24T02:33:17.061Z,12.26
2023-04-24T02:33:58.664Z,12.13
2023-04-24T02:34:40.268Z,12.11
2023-04-24T02:35:21.876Z,12.22
2023-04-24T02:36:03.846Z,12.10
2023-04-24T02:36:45.480Z,12.14
2023-04-24T02:37:27.051Z,12.17
2023-04-24T02:38:08.649Z,12.15
2023-04-24T02:38:51.799Z,12.16
2023-04-24T02:39:33.393Z,12.13
2023-04-24T02:40:15.110Z,12.05
2023-04-24T02:40:56.750Z,12.13
2023-04-24T02:41:38.428Z,12.00
2023-04-24T02:42:20.022Z,12.12
2023-04-24T02:43:01.672Z,12.09
2023-04-24T02:43:43.476Z,12.06
2023-04-24T02:44:25.258Z,12.01
2023-04-24T02:45:07.567Z,11.91
2023-04-24T02:45:49.888Z,11.91
2023-04-24T02:46:31.758Z,11.84
2023-04-24T02:47:13.327Z,11.85
2023-04-24T02:47:54.943Z,11.75
2023-04-24T02:48:36.663Z,11.88
2023-04-24T02:49:18.212Z,11.78
2023-04-24T02:49:59.852Z,11.84
2023-04-24T02:50:41.608Z,11.66
2023-04-24T02:51:23.258Z,11.85
2023-04-24T02:52:04.962Z,11.87
2023-04-24T02:52:46.651Z,11.82
2023-04-24T02:53:28.326Z,11.92
2023-04-24T02:54:10.993Z,11.94
2023-04-24T02:54:54.706Z,11.96
2023-04-24T02:55:37.026Z,11.91
2023-04-24T02:56:18.861Z,12.01
2023-04-24T02:57:02.186Z,12.00
2023-04-24T02:57:43.928Z,12.00
2023-04-24T02:58:25.937Z,11.99
2023-04-24T02:59:07.586Z,12.00
2023-04-24T02:59:49.632Z,12.03
2023-04-24T03:00:31.354Z,12.00
2023-04-24T03:01:13.143Z,12.02
2023-04-24T03:01:54.802Z,11.78
2023-04-24T03:02:36.454Z,12.07
2023-04-24T03:03:18.514Z,12.00
2023-04-24T03:04:00.484Z,12.06
2023-04-24T03:04:43.831Z,11.93
2023-04-24T03:05:26.013Z,11.60
2023-04-24T03:06:08.880Z,11.89
2023-04-24T03:06:52.669Z,11.97
2023-04-24T03:07:35.813Z,11.96
2023-04-24T03:08:17.494Z,11.83
2023-04-24T03:08:59.478Z,11.93
2023-04-24T03:09:42.059Z,11.91
2023-04-24T03:10:23.923Z,11.83
2023-04-24T03:11:05.526Z,11.92
2023-04-24T03:11:47.079Z,11.93
2023-04-24T03:12:28.640Z,11.93
2023-04-24T03:13:10.624Z,11.97
2023-04-24T03:13:52.264Z,12.00
2023-04-24T03:14:35.665Z,11.87
2023-04-24T03:15:17.389Z,11.99
2023-04-24T03:15:59.026Z,11.99
2023-04-24T03:16:42.494Z,11.98
2023-04-24T03:17:24.274Z,11.96
2023-04-24T03:18:05.928Z,11.97
2023-04-24T03:18:47.552Z,11.96
2023-04-24T03:19:29.980Z,11.95
2023-04-24T03:20:19.878Z,11.94
2023-04-24T03:21:01.894Z,11.77
2023-04-24T03:21:43.790Z,11.94
2023-04-24T03:22:25.434Z,11.96
2023-04-24T03:23:07.835Z,11.91
2023-04-24T03:23:50.946Z,11.96
2023-04-24T03:24:32.965Z,11.94
2023-04-24T03:25:14.912Z,11.90
2023-04-24T03:25:56.928Z,11.85
2023-04-24T03:26:40.841Z,11.78
2023-04-24T03:27:43.616Z,11.69
2023-04-24T03:28:51.648Z,11.67
2023-04-24T03:29:33.316Z,11.60
2023-04-24T03:30:15.342Z,11.54
2023-04-24T03:31:08.510Z,11.41
2023-04-24T03:31:51.790Z,11.41
2023-04-24T03:32:33.858Z,11.39
2023-04-24T03:33:16.464Z,11.40
2023-04-24T03:34:08.139Z,11.34
2023-04-24T03:34:50.879Z,11.40
2023-04-24T03:35:32.520Z,11.36
2023-04-24T03:36:17.346Z,11.03
2023-04-24T03:36:59.068Z,11.19
2023-04-24T03:37:40.960Z,11.13
2023-04-24T03:38:41.233Z,11.20
2023-04-24T03:39:36.712Z,11.22
2023-04-24T03:40:21.108Z,11.07
2023-04-24T03:41:02.925Z,11.15
2023-04-24T03:41:55.539Z,11.12
2023-04-24T03:42:41.982Z,10.77
2023-04-24T03:43:24.161Z,10.97
2023-04-24T03:44:05.883Z,11.08
2023-04-24T03:44:47.521Z,10.94
2023-04-24T03:45:29.938Z,11.08
2023-04-24T03:46:12.371Z,11.06
2023-04-24T03:46:59.400Z,11.04
2023-04-24T03:47:41.050Z,11.01
2023-04-24T03:48:22.924Z,10.88
2023-04-24T03:49:05.181Z,10.91
2023-04-24T03:49:51.056Z,10.78
2023-04-24T03:50:32.877Z,10.77
2023-04-24T03:51:15.073Z,10.76
2023-04-24T03:51:59.936Z,10.72
2023-04-24T03:52:42.952Z,10.60
2023-04-24T03:53:27.395Z,10.40
2023-04-24T03:54:09.355Z,10.55
2023-04-24T03:54:53.884Z,10.49
2023-04-24T03:55:35.534Z,10.42
2023-04-24T03:56:17.381Z,10.46
2023-04-24T03:56:59.093Z,10.17
2023-04-24T03:57:42.829Z,10.35
2023-04-24T03:58:33.097Z,10.32
2023-04-24T03:59:15.795Z,10.20
2023-04-24T04:00:01.072Z,10.20
2023-04-24T04:00:42.882Z,10.07
2023-04-24T04:01:44.846Z,10.26
2023-04-24T04:02:29.729Z,10.20
2023-04-24T04:03:12.154Z,10.22
2023-04-24T04:03:54.273Z,10.26
2023-04-24T04:04:39.391Z,10.23
2023-04-24T04:05:21.227Z,10.18
2023-04-24T04:06:03.063Z,10.02
2023-04-24T04:06:47.933Z,10.06
2023-04-24T04:07:30.886Z,10.08
2023-04-24T04:08:12.788Z,10.07
2023-04-24T04:08:54.380Z,9.91
2023-04-24T04:09:35.955Z,9.98
2023-04-24T04:10:18.325Z,10.06
2023-04-24T04:10:59.975Z,10.05
2023-04-24T04:11:41.652Z,10.02
2023-04-24T04:12:23.297Z,9.98
2023-04-24T04:13:04.919Z,9.95
2023-04-24T04:13:48.833Z,9.92
2023-04-24T04:14:32.611Z,9.84
2023-04-24T04:15:14.252Z,9.96
2023-04-24T04:15:56.517Z,9.96
2023-04-24T04:16:38.379Z,9.97
2023-04-24T04:17:21.127Z,9.94
2023-04-24T04:18:03.430Z,9.92
2023-04-24T04:18:46.250Z,9.95
2023-04-24T04:19:27.826Z,9.93
2023-04-24T04:20:11.057Z,9.92
2023-04-24T04:20:54.222Z,9.91
2023-04-24T04:21:35.937Z,9.91
2023-04-24T04:22:44.636Z,9.90
2023-04-24T04:23:31.459Z,9.85
2023-04-24T04:24:24.973Z,9.93
2023-04-24T04:25:07.693Z,9.93
2023-04-24T04:25:50.854Z,9.85
2023-04-24T04:26:34.143Z,9.97
2023-04-24T04:27:22.388Z,9.99
2023-04-24T04:28:11.361Z,10.05
2023-04-24T04:28:53.974Z,10.01
2023-04-24T04:29:36.631Z,10.08
2023-04-24T04:30:21.874Z,10.06
2023-04-24T04:31:10.536Z,9.92
2023-04-24T04:31:52.593Z,10.01
2023-04-24T04:32:35.226Z,10.07
2023-04-24T04:33:19.308Z,9.98
2023-04-24T04:34:02.581Z,9.59
2023-04-24T04:34:50.412Z,9.87
2023-04-24T04:35:32.120Z,9.99
2023-04-24T04:36:14.737Z,9.99
2023-04-24T04:37:02.616Z,9.88
2023-04-24T04:38:13.537Z,9.96
2023-04-24T04:39:03.725Z,9.93
2023-04-24T04:39:59.109Z,10.02
2023-04-24T04:40:42.852Z,9.94
2023-04-24T04:41:27.173Z,9.93
2023-04-24T04:42:08.827Z,9.94
2023-04-24T04:42:55.217Z,9.91
2023-04-24T04:43:39.138Z,9.78
2023-04-24T04:44:20.999Z,9.88
2023-04-24T04:45:03.154Z,9.84
2023-04-24T04:45:57.005Z,9.84
2023-04-24T04:47:06.470Z,9.86
2023-04-24T04:47:50.890Z,9.85
2023-04-24T04:48:33.505Z,9.69
2023-04-24T04:49:17.728Z,9.78
2023-04-24T04:50:00.575Z,9.85
2023-04-24T04:50:43.348Z,9.81
2023-04-24T04:51:25.411Z,9.84
2023-04-24T04:52:07.293Z,9.82
2023-04-24T04:52:49.081Z,9.79
2023-04-24T04:53:40.585Z,9.60
2023-04-24T04:54:23.415Z,9.64
2023-04-24T04:55:06.197Z,9.70
2023-04-24T04:56:07.804Z,9.64
2023-04-24T04:56:55.017Z,9.57
2023-04-24T04:57:37.305Z,9.73
2023-04-24T04:58:20.009Z,9.69
2023-04-24T04:59:07.257Z,9.56
2023-04-24T04:59:48.945Z,9.64
2023-04-24T05:00:42.451Z,9.63
2023-04-24T05:02:02.381Z,9.61
2023-04-24T05:02:44.223Z,9.60
2023-04-24T05:03:26.272Z,9.61
2023-04-24T05:04:16.857Z,9.28
2023-04-24T05:04:59.538Z,9.40
2023-04-24T05:05:42.925Z,9.27
2023-04-24T05:06:28.566Z,9.56
2023-04-24T05:07:10.678Z,9.55
2023-04-24T05:07:55.095Z,9.56
2023-04-24T05:08:36.883Z,9.47
2023-04-24T05:09:20.480Z,9.48
2023-04-24T05:10:08.033Z,9.50
2023-04-24T05:10:49.781Z,9.43
2023-04-24T05:11:31.480Z,9.41
2023-04-24T05:12:14.473Z,9.37
2023-04-24T05:13:04.834Z,9.43
2023-04-24T05:13:47.649Z,9.40
2023-04-24T05:14:34.385Z,9.50
2023-04-24T05:15:16.142Z,9.53
2023-04-24T05:15:58.523Z,9.54
2023-04-24T05:16:41.417Z,9.45
2023-04-24T05:17:24.819Z,9.60
2023-04-24T05:18:09.074Z,9.60
2023-04-24T05:18:50.907Z,9.30
2023-04-24T05:19:38.860Z,9.59
2023-04-24T05:20:21.562Z,9.15
2023-04-24T05:21:03.964Z,9.58
2023-04-24T05:21:46.281Z,9.52
2023-04-24T05:22:27.957Z,9.50
2023-04-24T05:23:09.708Z,9.52
2023-04-24T05:23:53.153Z,9.43
2023-04-24T05:24:54.120Z,9.49
2023-04-24T05:25:51.684Z,9.23
2023-04-24T05:26:33.610Z,9.47
2023-04-24T05:27:16.122Z,9.24
2023-04-24T05:27:57.790Z,9.56
2023-04-24T05:28:39.505Z,9.53
2023-04-24T05:29:25.596Z,9.59
2023-04-24T05:30:10.403Z,9.44
2023-04-24T05:30:52.025Z,9.61
2023-04-24T05:31:38.594Z,9.45
2023-04-24T05:32:20.889Z,9.50
2023-04-24T05:33:02.626Z,9.53
2023-04-24T05:33:45.587Z,9.62
2023-04-24T05:34:27.371Z,9.64
2023-04-24T05:35:11.608Z,9.64
2023-04-24T05:35:53.286Z,9.57
2023-04-24T05:36:35.530Z,9.50
2023-04-24T05:37:17.130Z,9.73
2023-04-24T05:37:58.813Z,9.76
2023-04-24T05:38:40.424Z,9.39
2023-04-24T05:39:22.066Z,9.79
2023-04-24T05:40:06.305Z,9.83
2023-04-24T05:40:47.978Z,9.72
2023-04-24T05:41:29.890Z,9.86
2023-04-24T05:42:11.484Z,9.85
2023-04-24T05:42:53.090Z,9.87
2023-04-24T05:43:36.198Z,9.89
2023-04-24T05:44:18.003Z,9.82
2023-04-24T05:44:59.648Z,9.88
2023-04-24T05:45:42.109Z,9.85
2023-04-24T05:46:23.771Z,9.95
2023-04-24T05:47:05.471Z,9.97
2023-04-24T05:47:47.809Z,9.78
2023-04-24T05:48:29.591Z,10.07
2023-04-24T05:49:11.246Z,10.11
2023-04-24T05:49:54.267Z,10.17
2023-04-24T05:50:37.208Z,10.06
2023-04-24T05:51:19.052Z,10.24
2023-04-24T05:52:00.920Z,10.26
2023-04-24T05:52:43.227Z,10.16
2023-04-24T05:53:38.978Z,10.30
2023-04-24T05:54:20.930Z,10.43
2023-04-24T05:55:02.905Z,10.32
2023-04-24T05:55:48.381Z,10.46
2023-04-24T05:56:30.799Z,10.46
2023-04-24T05:57:13.812Z,10.40
2023-04-24T05:58:17.459Z,10.49
2023-04-24T05:58:59.766Z,10.43
2023-04-24T05:59:42.226Z,10.48
2023-04-24T06:00:25.298Z,10.63
2023-04-24T06:01:17.832Z,10.70
2023-04-24T06:02:03.042Z,10.73
2023-04-24T06:02:44.897Z,10.70
2023-04-24T06:03:28.502Z,10.71
2023-04-24T06:04:10.385Z,10.73
2023-04-24T06:04:52.335Z,10.78
2023-04-24T06:05:34.233Z,10.84
2023-04-24T06:06:18.348Z,10.89
2023-04-24T06:07:00.863Z,10.95
2023-04-24T06:07:42.853Z,10.98
2023-04-24T06:08:24.768Z,10.95
2023-04-24T06:09:07.623Z,10.94
2023-04-24T06:09:49.582Z,11.02
2023-04-24T06:10:31.768Z,11.07
2023-04-24T06:11:13.695Z,11.12
2023-04-24T06:11:55.716Z,11.19
2023-04-24T06:12:41.276Z,11.03
2023-04-24T06:13:28.570Z,11.21
2023-04-24T06:14:28.998Z,11.22
2023-04-24T06:15:33.474Z,11.33
2023-04-24T06:16:20.645Z,11.37
2023-04-24T06:17:09.317Z,11.34
2023-04-24T06:17:55.100Z,11.40
2023-04-24T06:18:36.749Z,11.44
2023-04-24T06:19:18.462Z,11.38
2023-04-24T06:20:00.075Z,11.58
2023-04-24T06:20:41.925Z,11.52
2023-04-24T06:21:24.911Z,11.42
2023-04-24T06:22:07.015Z,11.77
2023-04-24T06:22:49.646Z,11.83
2023-04-24T06:23:33.408Z,11.73
2023-04-24T06:24:15.545Z,11.85
2023-04-24T06:24:57.138Z,11.91
2023-04-24T06:25:39.990Z,11.98
2023-04-24T06:26:21.726Z,12.07
2023-04-24T06:27:03.631Z,12.20
2023-04-24T06:27:45.293Z,12.37
2023-04-24T06:28:27.157Z,12.51
2023-04-24T06:29:08.768Z,12.27
2023-04-24T06:29:55.245Z,12.53
2023-04-24T06:30:37.016Z,12.70
2023-04-24T06:31:18.640Z,12.87
2023-04-24T06:32:00.474Z,12.77
2023-04-24T06:32:42.243Z,12.58
2023-04-24T06:33:24.180Z,12.32
2023-04-24T06:34:05.969Z,12.27
2023-04-24T06:34:47.537Z,12.18
2023-04-24T06:35:29.138Z,12.18
2023-04-24T06:36:11.541Z,12.10
2023-04-24T06:36:55.794Z,12.03
2023-04-24T06:37:37.592Z,11.97
2023-04-24T06:38:19.331Z,11.95
2023-04-24T06:39:01.122Z,11.88
2023-04-24T06:39:43.341Z,11.95
2023-04-24T06:40:25.520Z,11.64
2023-04-24T06:41:07.136Z,11.85
2023-04-24T06:41:48.786Z,11.96
2023-04-24T06:42:36.062Z,11.96
2023-04-24T06:43:18.953Z,12.03
2023-04-24T06:44:00.581Z,12.07
2023-04-24T06:44:42.305Z,12.05
2023-04-24T06:45:23.963Z,11.72
2023-04-24T06:46:05.696Z,11.97
2023-04-24T06:46:47.641Z,11.83
2023-04-24T06:47:29.272Z,11.88
2023-04-24T06:48:11.028Z,11.88
2023-04-24T06:48:58.822Z,11.83
2023-04-24T06:49:41.856Z,11.88
2023-04-24T06:50:23.782Z,11.93
2023-04-24T06:51:05.445Z,11.94
2023-04-24T06:51:47.079Z,11.47
2023-04-24T06:52:28.751Z,11.64
2023-04-24T06:53:12.049Z,11.66
2023-04-24T06:53:59.778Z,11.64
2023-04-24T06:54:42.534Z,11.58
2023-04-24T06:55:24.157Z,11.51
2023-04-24T06:56:05.898Z,11.49
2023-04-24T06:56:48.843Z,11.41
2023-04-24T06:57:31.213Z,11.43
2023-04-24T06:58:13.130Z,11.51
2023-04-24T06:58:54.716Z,11.53
2023-04-24T06:59:36.550Z,11.61
2023-04-24T07:00:18.362Z,11.35
2023-04-24T07:00:59.966Z,11.72
2023-04-24T07:01:41.655Z,11.80
2023-04-24T07:02:23.523Z,11.76
2023-04-24T07:03:06.788Z,11.80
2023-04-24T07:03:48.626Z,11.79
2023-04-24T07:04:31.093Z,11.69
2023-04-24T07:05:13.719Z,11.58
2023-04-24T07:05:56.025Z,11.69
2023-04-24T07:06:38.536Z,11.66
2023-04-24T07:07:20.146Z,11.61
2023-04-24T07:08:02.735Z,11.52
2023-04-24T07:08:44.787Z,11.56
2023-04-24T07:09:26.984Z,11.62
2023-04-24T07:10:09.581Z,11.55
2023-04-24T07:10:51.990Z,11.48
2023-04-24T07:11:33.843Z,11.54
2023-04-24T07:12:15.487Z,11.59
2023-04-24T07:12:57.466Z,11.61
2023-04-24T07:13:42.711Z,11.41
2023-04-24T07:14:24.446Z,11.43
2023-04-24T07:15:07.254Z,11.53
2023-04-24T07:15:51.322Z,11.45
2023-04-24T07:16:33.468Z,11.22
2023-04-24T07:17:15.691Z,11.56
2023-04-24T07:17:57.601Z,11.67
2023-04-24T07:18:40.715Z,11.62
2023-04-24T07:19:22.355Z,11.80
2023-04-24T07:20:05.149Z,11.79
2023-04-24T07:20:46.865Z,11.82
2023-04-24T07:21:28.808Z,11.79
2023-04-24T07:22:12.476Z,11.85
2023-04-24T07:22:54.961Z,11.80
2023-04-24T07:23:36.802Z,11.88
2023-04-24T07:24:19.412Z,11.97
2023-04-24T07:25:03.529Z,11.95
2023-04-24T07:25:45.370Z,11.80
2023-04-24T07:26:28.030Z,11.82
2023-04-24T07:27:09.626Z,11.86
2023-04-24T07:27:51.287Z,11.72
2023-04-24T07:28:32.950Z,11.69
2023-04-24T07:29:15.324Z,11.77
2023-04-24T07:29:56.925Z,11.84
2023-04-24T07:30:38.576Z,11.92
2023-04-24T07:31:20.523Z,11.85
2023-04-24T07:32:04.044Z,11.81
2023-04-24T07:32:46.022Z,11.84
2023-04-24T07:33:28.198Z,11.87
2023-04-24T07:34:09.783Z,11.93
2023-04-24T07:34:51.478Z,12.06
2023-04-24T07:35:36.488Z,12.34
2023-04-24T07:36:26.734Z,12.25
2023-04-24T07:37:23.408Z,12.37
2023-04-24T07:38:07.142Z,12.54
2023-04-24T07:38:49.140Z,12.54
2023-04-24T07:39:30.813Z,12.47
2023-04-24T07:40:14.148Z,12.41
2023-04-24T07:40:56.510Z,12.44
2023-04-24T07:41:38.200Z,12.37
2023-04-24T07:42:20.074Z,12.22
2023-04-24T07:43:01.666Z,12.35
2023-04-24T07:43:43.229Z,12.40
2023-04-24T07:44:25.071Z,12.45
2023-04-24T07:45:07.291Z,12.62
2023-04-24T07:45:49.194Z,12.70
2023-04-24T07:46:31.581Z,12.67
2023-04-24T07:47:13.607Z,12.56
2023-04-24T07:47:55.522Z,12.49
2023-04-24T07:48:37.829Z,12.27
2023-04-24T07:49:20.100Z,12.36
2023-04-24T07:50:01.939Z,11.48
2023-04-24T07:50:43.660Z,11.95
2023-04-24T07:51:27.150Z,11.82
2023-04-24T07:52:09.061Z,11.74
2023-04-24T07:52:51.210Z,11.56
2023-04-24T07:53:32.970Z,11.47
2023-04-24T07:54:14.607Z,11.40
2023-04-24T07:54:59.390Z,11.22
2023-04-24T07:55:41.039Z,11.22
2023-04-24T07:56:22.815Z,11.15
2023-04-24T07:57:04.900Z,11.10
2023-04-24T07:57:46.526Z,10.82
2023-04-24T07:58:28.139Z,10.87
2023-04-24T07:59:12.869Z,10.88
2023-04-24T07:59:54.539Z,10.84
2023-04-24T08:00:36.285Z,10.69
2023-04-24T08:01:17.902Z,10.57
2023-04-24T08:01:59.606Z,10.70
2023-04-24T08:02:52.208Z,10.66
2023-04-24T08:03:51.881Z,10.40
2023-04-24T08:04:53.176Z,10.48
2023-04-24T08:05:44.078Z,10.55
2023-04-24T08:06:28.918Z,10.60
2023-04-24T08:07:10.813Z,10.61
2023-04-24T08:07:52.610Z,10.67
2023-04-24T08:08:34.402Z,10.64
2023-04-24T08:09:16.062Z,10.63
2023-04-24T08:09:57.758Z,10.68
2023-04-24T08:10:39.438Z,10.76
2023-04-24T08:11:23.064Z,10.83
2023-04-24T08:12:06.593Z,10.88
2023-04-24T08:12:48.360Z,10.91
2023-04-24T08:13:30.081Z,10.79
2023-04-24T08:14:13.547Z,10.84
2023-04-24T08:14:55.313Z,10.69
2023-04-24T08:15:37.026Z,10.87
2023-04-24T08:16:18.913Z,10.97
2023-04-24T08:17:01.608Z,11.04
2023-04-24T08:17:43.499Z,11.06
2023-04-24T08:18:25.264Z,11.29
2023-04-24T08:19:07.302Z,11.30
2023-04-24T08:19:49.306Z,11.38
2023-04-24T08:20:31.213Z,11.08
2023-04-24T08:21:17.937Z,11.19
2023-04-24T08:21:59.601Z,11.34
2023-04-24T08:22:42.323Z,11.48
2023-04-24T08:23:23.909Z,11.51
2023-04-24T08:24:08.447Z,11.43
2023-04-24T08:24:50.234Z,11.48
2023-04-24T08:25:31.936Z,11.61
2023-04-24T08:26:14.266Z,11.66
2023-04-24T08:26:58.111Z,11.82
2023-04-24T08:27:40.129Z,12.08
2023-04-24T08:28:22.099Z,12.23
2023-04-24T08:29:03.862Z,12.23
2023-04-24T08:29:45.794Z,12.19
2023-04-24T08:30:27.534Z,12.22
2023-04-24T08:31:09.197Z,12.03
2023-04-24T08:31:50.988Z,12.21
2023-04-24T08:32:32.769Z,12.33
2023-04-24T08:33:16.130Z,12.25
2023-04-24T08:33:57.789Z,12.26
2023-04-24T08:34:39.456Z,12.23
2023-04-24T08:35:21.277Z,12.15
2023-04-24T08:36:06.597Z,12.21
2023-04-24T08:36:48.575Z,12.23
2023-04-24T08:37:30.393Z,12.55
2023-04-24T08:38:12.094Z,12.78
2023-04-24T08:38:53.953Z,13.22
2023-04-24T08:39:35.689Z,13.53
2023-04-24T08:40:17.906Z,13.62
2023-04-24T08:41:01.307Z,13.43
2023-04-24T08:41:44.225Z,13.42
2023-04-24T08:42:29.697Z,12.94
2023-04-24T08:43:14.062Z,13.76
2023-04-24T08:43:56.082Z,13.76
2023-04-24T08:44:38.282Z,13.80
2023-04-24T08:45:20.072Z,13.85
2023-04-24T08:46:02.196Z,13.95
2023-04-24T08:46:46.721Z,14.16
2023-04-24T08:47:30.062Z,14.27
2023-04-24T08:48:30.348Z,14.48
2023-04-24T08:49:23.661Z,14.61
2023-04-24T08:50:06.915Z,14.28
2023-04-24T08:50:51.132Z,14.11
2023-04-24T08:51:32.875Z,13.89
2023-04-24T08:52:14.683Z,13.62
2023-04-24T08:52:58.028Z,13.49
2023-04-24T08:53:39.843Z,13.45
2023-04-24T08:54:21.868Z,13.15
2023-04-24T08:55:04.020Z,13.36
2023-04-24T08:55:49.199Z,13.64
2023-04-24T08:56:34.474Z,13.75
2023-04-24T08:57:17.469Z,14.34
2023-04-24T08:58:01.907Z,14.30
2023-04-24T08:58:44.352Z,14.45
2023-04-24T08:59:26.097Z,14.05
2023-04-24T09:00:11.136Z,14.19
2023-04-24T09:00:56.385Z,14.02
2023-04-24T09:01:38.682Z,13.71
2023-04-24T09:02:21.824Z,13.54
2023-04-24T09:03:06.349Z,13.21
2023-04-24T09:03:50.139Z,13.15
2023-04-24T09:04:35.020Z,13.05
2023-04-24T09:05:22.369Z,13.02
2023-04-24T09:06:07.154Z,12.86
2023-04-24T09:06:50.290Z,12.91
2023-04-24T09:07:36.966Z,12.74
2023-04-24T09:08:19.885Z,12.70
2023-04-24T09:09:02.831Z,12.57
2023-04-24T09:09:45.317Z,12.43
2023-04-24T09:10:27.440Z,12.29
2023-04-24T09:11:10.157Z,12.22
2023-04-24T09:11:55.401Z,12.21
2023-04-24T09:12:37.116Z,12.22
2023-04-24T09:13:20.726Z,12.21
2023-04-24T09:14:02.821Z,12.32
2023-04-24T09:14:46.217Z,12.51
2023-04-24T09:15:28.806Z,12.51
2023-04-24T09:16:10.513Z,12.54
2023-04-24T09:16:52.248Z,12.56
2023-04-24T09:17:35.325Z,12.61
2023-04-24T09:18:16.959Z,12.58
2023-04-24T09:18:58.587Z,12.59
2023-04-24T09:19:41.571Z,12.55
2023-04-24T09:20:23.484Z,12.40
2023-04-24T09:21:08.949Z,12.55